East Harling, United Kingdom
Current Conditions -  °F | °C
As of 1:59 PM on Thursday 30 Oct 2014 (Local Time) from EGUL Reporting Station
Broken Clouds Broken Clouds  
Wind Chill: 17°   Ceiling: 2700
Heat Index: 17°   Visibility: 6mi
Dew Point: 17°   Wind: 9mph
Humidity: 100%   Direction: 220°SW
Pressure: 30.05"   Gusts: NA
Location:  52.44°N, 0.93°E
Report Text: EGUL 301359Z AUTO 22008KT 9999 SCT018 BKN027 17/17 A3005 RMK AO2 CIG 018V027 CIG 017 RWY06
Loading
Personal Weather Stations






























Interactive Weather Map
Tropical Storm Tracking
New forecast layout! Learn more

10-Day Weather Forecast

Advertisements
Track Severe Weather on mobile